sensor_id;sensor_type;location;lat;lon;timestamp;pressure;altitude;pressure_sealevel;temperature;humidity
6506;BME280;3286;49.858;8.768;2023-04-04T00:01:55;100290.81;;;2.95;47.23
6506;BME280;3286;49.858;8.768;2023-04-04T00:04:21;100295.44;;;2.13;47.65
6506;BME280;3286;49.858;8.768;2023-04-04T00:06:48;100293.72;;;2.33;48.57
6506;BME280;3286;49.858;8.768;2023-04-04T00:09:16;100289.25;;;2.54;48.33
6506;BME280;3286;49.858;8.768;2023-04-04T00:11:44;100291.44;;;2.63;47.09
6506;BME280;3286;49.858;8.768;2023-04-04T00:14:11;100288.63;;;2.68;47.27
6506;BME280;3286;49.858;8.768;2023-04-04T00:16:38;100291.50;;;2.61;47.18
6506;BME280;3286;49.858;8.768;2023-04-04T00:19:04;100281.63;;;2.49;47.71
6506;BME280;3286;49.858;8.768;2023-04-04T00:21:31;100281.19;;;2.58;47.27
6506;BME280;3286;49.858;8.768;2023-04-04T00:23:58;100285.66;;;2.18;49.00
6506;BME280;3286;49.858;8.768;2023-04-04T00:26:25;100271.44;;;2.81;47.53
6506;BME280;3286;49.858;8.768;2023-04-04T00:28:53;100282.41;;;2.32;47.78
6506;BME280;3286;49.858;8.768;2023-04-04T00:31:20;100274.81;;;2.08;48.46
6506;BME280;3286;49.858;8.768;2023-04-04T00:33:47;100270.34;;;2.68;46.82
6506;BME280;3286;49.858;8.768;2023-04-04T00:36:13;100268.50;;;2.70;47.06
6506;BME280;3286;49.858;8.768;2023-04-04T00:38:41;100271.31;;;2.65;47.35
6506;BME280;3286;49.858;8.768;2023-04-04T00:41:08;100269.50;;;2.48;47.25
6506;BME280;3286;49.858;8.768;2023-04-04T00:43:35;100262.13;;;2.20;47.95
6506;BME280;3286;49.858;8.768;2023-04-04T00:46:03;100265.03;;;2.33;47.29
6506;BME280;3286;49.858;8.768;2023-04-04T00:48:30;100261.56;;;2.32;46.56
6506;BME280;3286;49.858;8.768;2023-04-04T00:50:57;100258.59;;;2.40;46.74
6506;BME280;3286;49.858;8.768;2023-04-04T00:53:24;100257.19;;;2.33;46.36
6506;BME280;3286;49.858;8.768;2023-04-04T00:55:50;100256.19;;;1.97;47.78
6506;BME280;3286;49.858;8.768;2023-04-04T00:58:17;100253.97;;;2.08;47.17
6506;BME280;3286;49.858;8.768;2023-04-04T01:00:44;100257.50;;;2.07;48.10
6506;BME280;3286;49.858;8.768;2023-04-04T01:03:12;100257.97;;;2.35;46.07
6506;BME280;3286;49.858;8.768;2023-04-04T01:05:39;100266.47;;;2.19;47.05
6506;BME280;3286;49.858;8.768;2023-04-04T01:08:06;100254.81;;;2.65;46.17
6506;BME280;3286;49.858;8.768;2023-04-04T01:10:33;100252.91;;;2.31;47.22
6506;BME280;3286;49.858;8.768;2023-04-04T01:12:59;100259.22;;;2.07;48.10
6506;BME280;3286;49.858;8.768;2023-04-04T01:15:26;100257.59;;;2.42;47.38
6506;BME280;3286;49.858;8.768;2023-04-04T01:17:57;100254.59;;;2.33;46.53
6506;BME280;3286;49.858;8.768;2023-04-04T01:20:28;100254.94;;;2.44;46.96
6506;BME280;3286;49.858;8.768;2023-04-04T01:22:56;100248.94;;;2.23;46.87
6506;BME280;3286;49.858;8.768;2023-04-04T01:25:29;100245.84;;;2.14;47.72
6506;BME280;3286;49.858;8.768;2023-04-04T01:27:57;100243.88;;;2.00;47.14
6506;BME280;3286;49.858;8.768;2023-04-04T01:30:27;100240.94;;;2.27;46.58
6506;BME280;3286;49.858;8.768;2023-04-04T01:32:58;100238.22;;;1.91;47.74
6506;BME280;3286;49.858;8.768;2023-04-04T01:35:31;100238.53;;;2.23;45.80
6506;BME280;3286;49.858;8.768;2023-04-04T01:38:07;100241.53;;;1.75;47.33
6506;BME280;3286;49.858;8.768;2023-04-04T01:40:43;100240.91;;;1.70;48.19
6506;BME280;3286;49.858;8.768;2023-04-04T01:43:13;100233.44;;;2.20;46.70
6506;BME280;3286;49.858;8.768;2023-04-04T01:45:40;100238.38;;;1.87;47.06
6506;BME280;3286;49.858;8.768;2023-04-04T01:48:07;100247.16;;;1.66;47.48
6506;BME280;3286;49.858;8.768;2023-04-04T01:50:35;100235.56;;;1.92;47.08
6506;BME280;3286;49.858;8.768;2023-04-04T01:53:02;100236.75;;;1.85;47.71
6506;BME280;3286;49.858;8.768;2023-04-04T01:55:28;100241.91;;;2.06;47.38
6506;BME280;3286;49.858;8.768;2023-04-04T01:57:56;100246.16;;;1.68;47.63
6506;BME280;3286;49.858;8.768;2023-04-04T02:00:23;100232.19;;;1.90;47.71
6506;BME280;3286;49.858;8.768;2023-04-04T02:02:49;100242.13;;;1.61;46.44
6506;BME280;3286;49.858;8.768;2023-04-04T02:05:16;100246.38;;;1.64;46.69
6506;BME280;3286;49.858;8.768;2023-04-04T02:07:46;100242.75;;;2.06;46.07
6506;BME280;3286;49.858;8.768;2023-04-04T02:10:13;100239.91;;;1.72;47.07
6506;BME280;3286;49.858;8.768;2023-04-04T02:12:39;100247.84;;;1.69;48.36
6506;BME280;3286;49.858;8.768;2023-04-04T02:15:08;100246.38;;;1.64;48.31
6506;BME280;3286;49.858;8.768;2023-04-04T02:17:35;100246.34;;;2.03;47.79
6506;BME280;3286;49.858;8.768;2023-04-04T02:20:02;100250.00;;;1.99;47.47
6506;BME280;3286;49.858;8.768;2023-04-04T02:22:29;100254.25;;;1.62;48.52
6506;BME280;3286;49.858;8.768;2023-04-04T02:24:55;100252.09;;;1.72;48.08
6506;BME280;3286;49.858;8.768;2023-04-04T02:27:24;100253.97;;;1.68;47.61
6506;BME280;3286;49.858;8.768;2023-04-04T02:29:51;100260.81;;;1.50;48.96
6506;BME280;3286;49.858;8.768;2023-04-04T02:32:19;100253.09;;;1.07;49.69
6506;BME280;3286;49.858;8.768;2023-04-04T02:34:46;100250.81;;;1.41;49.75
6506;BME280;3286;49.858;8.768;2023-04-04T02:37:13;100251.06;;;1.35;49.71
6506;BME280;3286;49.858;8.768;2023-04-04T02:39:40;100254.16;;;1.44;49.27
6506;BME280;3286;49.858;8.768;2023-04-04T02:42:06;100251.97;;;1.54;47.87
6506;BME280;3286;49.858;8.768;2023-04-04T02:44:33;100245.41;;;1.46;48.38
6506;BME280;3286;49.858;8.768;2023-04-04T02:47:00;100245.66;;;1.39;48.87
6506;BME280;3286;49.858;8.768;2023-04-04T02:49:28;100240.03;;;1.29;49.29
6506;BME280;3286;49.858;8.768;2023-04-04T02:51:56;100241.88;;;1.26;49.70
6506;BME280;3286;49.858;8.768;2023-04-04T02:54:23;100243.59;;;1.27;49.69
6506;BME280;3286;49.858;8.768;2023-04-04T02:56:49;100233.06;;;1.70;48.97
6506;BME280;3286;49.858;8.768;2023-04-04T02:59:16;100236.00;;;0.57;51.30
6506;BME280;3286;49.858;8.768;2023-04-04T03:01:43;100241.97;;;0.81;50.76
6506;BME280;3286;49.858;8.768;2023-04-04T03:04:10;100238.13;;;1.12;49.87
6506;BME280;3286;49.858;8.768;2023-04-04T03:06:39;100229.00;;;1.23;49.16
6506;BME280;3286;49.858;8.768;2023-04-04T03:09:06;100232.63;;;1.39;49.17
6506;BME280;3286;49.858;8.768;2023-04-04T03:11:33;100236.59;;;1.48;47.61
6506;BME280;3286;49.858;8.768;2023-04-04T03:13:59;100237.16;;;1.36;48.31
6506;BME280;3286;49.858;8.768;2023-04-04T03:16:26;100224.88;;;1.58;47.79
6506;BME280;3286;49.858;8.768;2023-04-04T03:18:54;100227.84;;;1.51;47.42
6506;BME280;3286;49.858;8.768;2023-04-04T03:21:21;100223.69;;;1.47;48.49
6506;BME280;3286;49.858;8.768;2023-04-04T03:23:49;100225.03;;;1.35;49.11
6506;BME280;3286;49.858;8.768;2023-04-04T03:26:15;100223.41;;;1.11;49.13
6506;BME280;3286;49.858;8.768;2023-04-04T03:28:42;100221.78;;;1.29;48.51
6506;BME280;3286;49.858;8.768;2023-04-04T03:31:08;100222.81;;;1.46;48.00
6506;BME280;3286;49.858;8.768;2023-04-04T03:33:35;100216.44;;;1.33;48.04
6506;BME280;3286;49.858;8.768;2023-04-04T03:36:02;100213.53;;;1.20;48.87
6506;BME280;3286;49.858;8.768;2023-04-04T03:38:29;100208.81;;;1.49;48.62
6506;BME280;3286;49.858;8.768;2023-04-04T03:41:03;100218.19;;;0.91;49.05
6506;BME280;3286;49.858;8.768;2023-04-04T03:43:31;100209.75;;;1.27;48.51
6506;BME280;3286;49.858;8.768;2023-04-04T03:46:01;100208.94;;;0.83;49.73
6506;BME280;3286;49.858;8.768;2023-04-04T03:48:29;100210.50;;;0.88;49.72
6506;BME280;3286;49.858;8.768;2023-04-04T03:50:56;100211.94;;;0.95;49.51
6506;BME280;3286;49.858;8.768;2023-04-04T03:53:23;100206.97;;;0.68;49.82
6506;BME280;3286;49.858;8.768;2023-04-04T03:55:49;100203.56;;;1.09;49.17
6506;BME280;3286;49.858;8.768;2023-04-04T03:58:18;100203.00;;;1.02;49.22
6506;BME280;3286;49.858;8.768;2023-04-04T04:00:44;100210.13;;;0.97;49.38
6506;BME280;3286;49.858;8.768;2023-04-04T04:03:11;100209.88;;;1.24;48.12
6506;BME280;3286;49.858;8.768;2023-04-04T04:05:38;100209.09;;;1.22;48.23
6506;BME280;3286;49.858;8.768;2023-04-04T04:08:04;100212.16;;;1.11;48.67
6506;BME280;3286;49.858;8.768;2023-04-04T04:10:31;100218.53;;;0.83;49.23
6506;BME280;3286;49.858;8.768;2023-04-04T04:12:58;100211.84;;;0.76;49.53
6506;BME280;3286;49.858;8.768;2023-04-04T04:15:27;100209.16;;;0.99;49.01
6506;BME280;3286;49.858;8.768;2023-04-04T04:17:53;100216.44;;;0.91;49.40
6506;BME280;3286;49.858;8.768;2023-04-04T04:20:20;100209.22;;;0.98;49.08
6506;BME280;3286;49.858;8.768;2023-04-04T04:22:47;100211.97;;;0.72;49.93
6506;BME280;3286;49.858;8.768;2023-04-04T04:25:14;100215.09;;;1.03;49.53
6506;BME280;3286;49.858;8.768;2023-04-04T04:27:41;100213.69;;;0.51;50.88
6506;BME280;3286;49.858;8.768;2023-04-04T04:30:08;100208.00;;;0.86;50.34
6506;BME280;3286;49.858;8.768;2023-04-04T04:32:36;100217.06;;;0.76;50.76
6506;BME280;3286;49.858;8.768;2023-04-04T04:35:03;100216.34;;;0.72;50.39
6506;BME280;3286;49.858;8.768;2023-04-04T04:37:30;100219.38;;;-0.31;52.90
6506;BME280;3286;49.858;8.768;2023-04-04T04:39:57;100217.94;;;0.54;51.07
6506;BME280;3286;49.858;8.768;2023-04-04T04:42:25;100213.22;;;0.41;51.35
6506;BME280;3286;49.858;8.768;2023-04-04T04:44:53;100209.44;;;0.71;50.76
6506;BME280;3286;49.858;8.768;2023-04-04T04:47:20;100219.25;;;0.42;50.80
6506;BME280;3286;49.858;8.768;2023-04-04T04:49:48;100215.63;;;0.68;50.39
6506;BME280;3286;49.858;8.768;2023-04-04T04:52:14;100217.91;;;0.09;52.71
6506;BME280;3286;49.858;8.768;2023-04-04T04:54:41;100221.31;;;0.34;51.66
6506;BME280;3286;49.858;8.768;2023-04-04T04:57:08;100210.31;;;0.27;51.38
6506;BME280;3286;49.858;8.768;2023-04-04T04:59:35;100214.59;;;0.28;51.83
6506;BME280;3286;49.858;8.768;2023-04-04T05:02:02;100213.53;;;0.34;51.30
6506;BME280;3286;49.858;8.768;2023-04-04T05:04:28;100214.88;;;0.20;51.45
6506;BME280;3286;49.858;8.768;2023-04-04T05:06:56;100227.22;;;0.37;51.17
6506;BME280;3286;49.858;8.768;2023-04-04T05:09:23;100226.03;;;0.46;50.64
6506;BME280;3286;49.858;8.768;2023-04-04T05:11:50;100227.41;;;0.55;50.40
6506;BME280;3286;49.858;8.768;2023-04-04T05:14:16;100228.38;;;0.75;50.26
6506;BME280;3286;49.858;8.768;2023-04-04T05:16:43;100226.97;;;1.09;50.17
6506;BME280;3286;49.858;8.768;2023-04-04T05:19:09;100228.69;;;0.45;50.76
6506;BME280;3286;49.858;8.768;2023-04-04T05:21:36;100224.69;;;0.80;50.13
6506;BME280;3286;49.858;8.768;2023-04-04T05:24:05;100230.38;;;0.68;50.55
6506;BME280;3286;49.858;8.768;2023-04-04T05:26:31;100227.56;;;0.95;50.09
6506;BME280;3286;49.858;8.768;2023-04-04T05:28:58;100233.53;;;0.76;50.26
6506;BME280;3286;49.858;8.768;2023-04-04T05:31:25;100233.13;;;0.85;50.47
6506;BME280;3286;49.858;8.768;2023-04-04T05:33:51;100230.09;;;0.96;49.89
6506;BME280;3286;49.858;8.768;2023-04-04T05:36:18;100223.97;;;1.18;48.85
6506;BME280;3286;49.858;8.768;2023-04-04T05:38:44;100230.56;;;1.27;48.77
6506;BME280;3286;49.858;8.768;2023-04-04T05:41:12;100230.31;;;1.33;48.68
6506;BME280;3286;49.858;8.768;2023-04-04T05:43:39;100229.19;;;1.39;48.63
6506;BME280;3286;49.858;8.768;2023-04-04T05:46:06;100226.19;;;1.69;48.56
6506;BME280;3286;49.858;8.768;2023-04-04T05:48:32;100225.19;;;1.71;48.30
6506;BME280;3286;49.858;8.768;2023-04-04T05:50:59;100220.75;;;1.73;48.05
6506;BME280;3286;49.858;8.768;2023-04-04T05:53:26;100221.72;;;1.52;48.81
6506;BME280;3286;49.858;8.768;2023-04-04T05:55:52;100224.56;;;2.05;47.41
6506;BME280;3286;49.858;8.768;2023-04-04T05:58:20;100222.69;;;1.89;48.46
6506;BME280;3286;49.858;8.768;2023-04-04T06:00:47;100225.75;;;2.36;46.63
6506;BME280;3286;49.858;8.768;2023-04-04T06:03:13;100223.06;;;2.37;46.68
6506;BME280;3286;49.858;8.768;2023-04-04T06:05:41;100223.19;;;2.53;46.15
6506;BME280;3286;49.858;8.768;2023-04-04T06:08:08;100219.84;;;2.69;46.22
6506;BME280;3286;49.858;8.768;2023-04-04T06:10:34;100218.47;;;2.79;45.77
6506;BME280;3286;49.858;8.768;2023-04-04T06:13:01;100220.78;;;2.85;44.73
6506;BME280;3286;49.858;8.768;2023-04-04T06:15:29;100229.63;;;3.00;43.53
6506;BME280;3286;49.858;8.768;2023-04-04T06:17:56;100229.31;;;2.89;43.30
6506;BME280;3286;49.858;8.768;2023-04-04T06:20:22;100222.19;;;3.10;43.41
6506;BME280;3286;49.858;8.768;2023-04-04T06:22:49;100233.16;;;2.99;44.35
6506;BME280;3286;49.858;8.768;2023-04-04T06:25:16;100228.44;;;3.41;42.37
6506;BME280;3286;49.858;8.768;2023-04-04T06:27:42;100236.09;;;3.28;42.56
6506;BME280;3286;49.858;8.768;2023-04-04T06:30:10;100237.56;;;3.50;42.65
6506;BME280;3286;49.858;8.768;2023-04-04T06:32:40;100236.75;;;3.50;42.19
6506;BME280;3286;49.858;8.768;2023-04-04T06:35:08;100230.34;;;3.55;42.89
6506;BME280;3286;49.858;8.768;2023-04-04T06:37:35;100230.09;;;3.94;41.49
6506;BME280;3286;49.858;8.768;2023-04-04T06:40:01;100233.19;;;3.84;41.94
6506;BME280;3286;49.858;8.768;2023-04-04T06:42:28;100230.03;;;3.95;42.39
6506;BME280;3286;49.858;8.768;2023-04-04T06:44:55;100234.81;;;4.19;41.30
6506;BME280;3286;49.858;8.768;2023-04-04T06:47:21;100237.69;;;4.46;41.68
6506;BME280;3286;49.858;8.768;2023-04-04T06:49:49;100241.34;;;4.44;41.99
6506;BME280;3286;49.858;8.768;2023-04-04T06:52:16;100239.22;;;4.51;41.10
6506;BME280;3286;49.858;8.768;2023-04-04T06:54:43;100244.72;;;4.62;42.17
6506;BME280;3286;49.858;8.768;2023-04-04T06:57:10;100242.03;;;4.94;40.43
6506;BME280;3286;49.858;8.768;2023-04-04T06:59:36;100239.44;;;4.78;41.18
6506;BME280;3286;49.858;8.768;2023-04-04T07:02:03;100237.34;;;5.44;40.13
6506;BME280;3286;49.858;8.768;2023-04-04T07:04:30;100243.06;;;5.06;40.70
6506;BME280;3286;49.858;8.768;2023-04-04T07:07:00;100241.19;;;4.93;39.25
6506;BME280;3286;49.858;8.768;2023-04-04T07:09:27;100239.41;;;4.94;39.22
6506;BME280;3286;49.858;8.768;2023-04-04T07:11:53;100239.44;;;4.78;39.91
6506;BME280;3286;49.858;8.768;2023-04-04T07:14:20;100248.84;;;4.66;39.06
6506;BME280;3286;49.858;8.768;2023-04-04T07:16:49;100247.22;;;5.10;39.11
6506;BME280;3286;49.858;8.768;2023-04-04T07:19:16;100242.91;;;5.54;38.00
6506;BME280;3286;49.858;8.768;2023-04-04T07:21:42;100251.38;;;5.29;37.43
6506;BME280;3286;49.858;8.768;2023-04-04T07:24:10;100242.25;;;5.94;36.62
6506;BME280;3286;49.858;8.768;2023-04-04T07:26:37;100252.09;;;5.76;36.45
6506;BME280;3286;49.858;8.768;2023-04-04T07:29:05;100253.38;;;5.40;36.72
6506;BME280;3286;49.858;8.768;2023-04-04T07:31:32;100254.25;;;5.55;37.46
6506;BME280;3286;49.858;8.768;2023-04-04T07:33:58;100252.38;;;5.26;37.43
6506;BME280;3286;49.858;8.768;2023-04-04T07:36:25;100244.69;;;5.97;38.04
6506;BME280;3286;49.858;8.768;2023-04-04T07:38:52;100241.88;;;5.86;36.72
6506;BME280;3286;49.858;8.768;2023-04-04T07:41:20;100234.00;;;5.86;35.93
6506;BME280;3286;49.858;8.768;2023-04-04T07:43:47;100229.41;;;5.31;38.44
6506;BME280;3286;49.858;8.768;2023-04-04T07:46:13;100233.75;;;6.19;36.57
6506;BME280;3286;49.858;8.768;2023-04-04T07:48:40;100232.06;;;6.46;35.84
6506;BME280;3286;49.858;8.768;2023-04-04T07:51:06;100230.72;;;6.11;35.50
6506;BME280;3286;49.858;8.768;2023-04-04T07:53:33;100235.50;;;5.90;36.07
6506;BME280;3286;49.858;8.768;2023-04-04T07:56:00;100234.78;;;5.59;36.62
6506;BME280;3286;49.858;8.768;2023-04-04T07:58:31;100223.16;;;6.76;35.43
6506;BME280;3286;49.858;8.768;2023-04-04T08:00:59;100215.63;;;6.84;34.38
6506;BME280;3286;49.858;8.768;2023-04-04T08:03:25;100222.47;;;6.59;35.37
6506;BME280;3286;49.858;8.768;2023-04-04T08:05:52;100222.81;;;6.67;36.54
6506;BME280;3286;49.858;8.768;2023-04-04T08:08:19;100222.44;;;6.87;34.87
6506;BME280;3286;49.858;8.768;2023-04-04T08:10:46;100229.25;;;6.49;34.15
6506;BME280;3286;49.858;8.768;2023-04-04T08:13:13;100226.22;;;6.82;35.46
6506;BME280;3286;49.858;8.768;2023-04-04T08:15:41;100232.97;;;6.59;35.34
6506;BME280;3286;49.858;8.768;2023-04-04T08:18:09;100227.81;;;6.85;36.24
6506;BME280;3286;49.858;8.768;2023-04-04T08:20:35;100222.84;;;7.34;35.04
6506;BME280;3286;49.858;8.768;2023-04-04T08:23:02;100222.22;;;6.90;35.99
6506;BME280;3286;49.858;8.768;2023-04-04T08:25:28;100212.47;;;6.79;34.76
6506;BME280;3286;49.858;8.768;2023-04-04T08:27:55;100219.06;;;7.51;35.52
6506;BME280;3286;49.858;8.768;2023-04-04T08:30:22;100215.03;;;7.84;33.56
6506;BME280;3286;49.858;8.768;2023-04-04T08:32:50;100219.16;;;7.49;33.40
6506;BME280;3286;49.858;8.768;2023-04-04T08:35:16;100211.69;;;7.30;33.71
6506;BME280;3286;49.858;8.768;2023-04-04T08:37:43;100217.03;;;7.54;33.57
6506;BME280;3286;49.858;8.768;2023-04-04T08:40:11;100216.31;;;7.78;32.07
6506;BME280;3286;49.858;8.768;2023-04-04T08:42:39;100207.19;;;8.46;32.28
6506;BME280;3286;49.858;8.768;2023-04-04T08:45:08;100214.13;;;8.47;31.75
6506;BME280;3286;49.858;8.768;2023-04-04T08:47:37;100212.78;;;8.41;31.27
6506;BME280;3286;49.858;8.768;2023-04-04T08:50:06;100214.09;;;7.07;32.34
6506;BME280;3286;49.858;8.768;2023-04-04T08:52:34;100213.28;;;7.46;32.72
6506;BME280;3286;49.858;8.768;2023-04-04T08:55:02;100209.22;;;6.88;31.16
6506;BME280;3286;49.858;8.768;2023-04-04T08:57:29;100206.19;;;5.69;32.88
6506;BME280;3286;49.858;8.768;2023-04-04T08:59:57;100208.25;;;5.49;32.42
6506;BME280;3286;49.858;8.768;2023-04-04T09:02:28;100213.97;;;5.85;33.57
6506;BME280;3286;49.858;8.768;2023-04-04T09:04:57;100209.25;;;6.61;32.86
6506;BME280;3286;49.858;8.768;2023-04-04T09:07:26;100209.28;;;6.46;32.28
6506;BME280;3286;49.858;8.768;2023-04-04T09:09:53;100210.19;;;6.32;35.11
6506;BME280;3286;49.858;8.768;2023-04-04T09:12:20;100212.16;;;6.00;34.70
6506;BME280;3286;49.858;8.768;2023-04-04T09:14:50;100203.38;;;7.23;33.32
6506;BME280;3286;49.858;8.768;2023-04-04T09:17:17;100196.25;;;7.25;30.92
6506;BME280;3286;49.858;8.768;2023-04-04T09:19:43;100195.69;;;7.85;31.11
6506;BME280;3286;49.858;8.768;2023-04-04T09:22:10;100195.69;;;8.22;30.32
6506;BME280;3286;49.858;8.768;2023-04-04T09:24:40;100200.22;;;7.70;31.35
6506;BME280;3286;49.858;8.768;2023-04-04T09:27:08;100200.75;;;7.49;30.50
6506;BME280;3286;49.858;8.768;2023-04-04T09:29:36;100196.03;;;8.66;30.75
6506;BME280;3286;49.858;8.768;2023-04-04T09:32:05;100192.16;;;8.35;29.87
6506;BME280;3286;49.858;8.768;2023-04-04T09:34:32;100193.56;;;8.27;30.50
6506;BME280;3286;49.858;8.768;2023-04-04T09:36:59;100190.00;;;8.16;29.51
6506;BME280;3286;49.858;8.768;2023-04-04T09:39:26;100192.69;;;7.90;29.15
6506;BME280;3286;49.858;8.768;2023-04-04T09:41:54;100197.81;;;7.54;28.91
6506;BME280;3286;49.858;8.768;2023-04-04T09:44:23;100182.66;;;7.06;29.81
6506;BME280;3286;49.858;8.768;2023-04-04T09:46:50;100187.28;;;7.67;29.69
6506;BME280;3286;49.858;8.768;2023-04-04T09:49:18;100190.56;;;8.32;29.99
6506;BME280;3286;49.858;8.768;2023-04-04T09:51:47;100187.53;;;8.63;30.42
6506;BME280;3286;49.858;8.768;2023-04-04T09:54:20;100188.38;;;8.63;28.13
6506;BME280;3286;49.858;8.768;2023-04-04T09:56:47;100186.72;;;8.98;28.34
6506;BME280;3286;49.858;8.768;2023-04-04T09:59:16;100191.03;;;7.89;29.45
6506;BME280;3286;49.858;8.768;2023-04-04T10:01:43;100186.81;;;6.82;29.83
6506;BME280;3286;49.858;8.768;2023-04-04T10:04:12;100189.97;;;7.91;30.45
6506;BME280;3286;49.858;8.768;2023-04-04T10:06:42;100194.97;;;8.45;28.01
6506;BME280;3286;49.858;8.768;2023-04-04T10:09:10;100182.53;;;7.85;30.02
6506;BME280;3286;49.858;8.768;2023-04-04T10:11:37;100179.00;;;9.65;27.65
6506;BME280;3286;49.858;8.768;2023-04-04T10:14:03;100186.22;;;8.68;28.84
6506;BME280;3286;49.858;8.768;2023-04-04T10:16:32;100183.69;;;8.91;29.44
6506;BME280;3286;49.858;8.768;2023-04-04T10:19:03;100186.34;;;9.03;27.67
6506;BME280;3286;49.858;8.768;2023-04-04T10:21:29;100183.84;;;9.12;27.22
6506;BME280;3286;49.858;8.768;2023-04-04T10:23:57;100187.16;;;8.56;26.99
6506;BME280;3286;49.858;8.768;2023-04-04T10:26:24;100178.44;;;8.18;27.36
6506;BME280;3286;49.858;8.768;2023-04-04T10:28:51;100190.31;;;9.08;28.47
6506;BME280;3286;49.858;8.768;2023-04-04T10:31:21;100179.16;;;8.45;29.11
6506;BME280;3286;49.858;8.768;2023-04-04T10:33:58;100171.78;;;9.78;26.66
6506;BME280;3286;49.858;8.768;2023-04-04T10:36:29;100175.00;;;10.37;27.14
6506;BME280;3286;49.858;8.768;2023-04-04T10:39:01;100169.41;;;10.19;25.59
6506;BME280;3286;49.858;8.768;2023-04-04T10:41:30;100185.94;;;8.96;28.55
6506;BME280;3286;49.858;8.768;2023-04-04T10:44:00;100179.09;;;8.82;28.99
6506;BME280;3286;49.858;8.768;2023-04-04T10:46:30;100172.97;;;9.85;27.80
6506;BME280;3286;49.858;8.768;2023-04-04T10:49:01;100178.72;;;8.26;27.84
6506;BME280;3286;49.858;8.768;2023-04-04T10:51:29;100184.88;;;8.87;26.27
6506;BME280;3286;49.858;8.768;2023-04-04T10:53:56;100175.50;;;9.64;26.96
6506;BME280;3286;49.858;8.768;2023-04-04T10:56:24;100170.28;;;10.20;25.16
6506;BME280;3286;49.858;8.768;2023-04-04T10:59:07;100175.25;;;9.67;28.28
6506;BME280;3286;49.858;8.768;2023-04-04T11:01:54;100170.81;;;9.56;28.05
6506;BME280;3286;49.858;8.768;2023-04-04T11:04:30;100163.56;;;10.15;26.35
6506;BME280;3286;49.858;8.768;2023-04-04T11:07:15;100158.78;;;10.09;26.84
6506;BME280;3286;49.858;8.768;2023-04-04T11:09:48;100163.44;;;8.92;27.47
6506;BME280;3286;49.858;8.768;2023-04-04T11:12:19;100160.31;;;8.87;28.14
6506;BME280;3286;49.858;8.768;2023-04-04T11:15:05;100152.38;;;9.34;26.78
6506;BME280;3286;49.858;8.768;2023-04-04T11:17:52;100147.16;;;10.00;25.44
6506;BME280;3286;49.858;8.768;2023-04-04T11:20:22;100136.81;;;10.09;27.00
6506;BME280;3286;49.858;8.768;2023-04-04T11:22:49;100132.28;;;9.99;26.82
6506;BME280;3286;49.858;8.768;2023-04-04T11:25:32;100124.69;;;9.51;26.06
6506;BME280;3286;49.858;8.768;2023-04-04T11:28:04;100123.56;;;9.53;27.04
6506;BME280;3286;49.858;8.768;2023-04-04T11:30:36;100123.56;;;9.76;25.57
6506;BME280;3286;49.858;8.768;2023-04-04T11:33:03;100121.19;;;9.73;26.20
6506;BME280;3286;49.858;8.768;2023-04-04T11:35:32;100121.63;;;9.90;26.69
6506;BME280;3286;49.858;8.768;2023-04-04T11:37:59;100121.19;;;9.39;30.59
6506;BME280;3286;49.858;8.768;2023-04-04T11:40:33;100114.59;;;9.67;28.60
6506;BME280;3286;49.858;8.768;2023-04-04T11:43:06;100119.53;;;10.05;27.54
6506;BME280;3286;49.858;8.768;2023-04-04T11:45:34;100114.56;;;9.79;28.43
6506;BME280;3286;49.858;8.768;2023-04-04T11:48:02;100116.13;;;9.81;27.96
6506;BME280;3286;49.858;8.768;2023-04-04T11:50:35;100102.94;;;10.58;26.57
6506;BME280;3286;49.858;8.768;2023-04-04T11:53:06;100111.97;;;9.45;26.91
6506;BME280;3286;49.858;8.768;2023-04-04T11:55:38;100104.00;;;9.90;26.66
6506;BME280;3286;49.858;8.768;2023-04-04T11:58:10;100099.66;;;10.00;28.53
6506;BME280;3286;49.858;8.768;2023-04-04T12:00:37;100095.22;;;10.34;26.16
6506;BME280;3286;49.858;8.768;2023-04-04T12:03:05;100084.31;;;11.12;25.58
6506;BME280;3286;49.858;8.768;2023-04-04T12:05:34;100088.00;;;11.71;26.36
6506;BME280;3286;49.858;8.768;2023-04-04T12:08:02;100084.06;;;11.56;26.27
6506;BME280;3286;49.858;8.768;2023-04-04T12:10:30;100089.00;;;10.23;27.71
6506;BME280;3286;49.858;8.768;2023-04-04T12:12:59;100086.97;;;9.83;27.20
6506;BME280;3286;49.858;8.768;2023-04-04T12:15:27;100075.94;;;10.22;27.64
6506;BME280;3286;49.858;8.768;2023-04-04T12:17:57;100074.75;;;10.68;27.88
6506;BME280;3286;49.858;8.768;2023-04-04T12:20:24;100067.34;;;10.41;27.11
6506;BME280;3286;49.858;8.768;2023-04-04T12:22:52;100065.47;;;10.74;26.65
6506;BME280;3286;49.858;8.768;2023-04-04T12:25:21;100059.63;;;11.93;27.00
6506;BME280;3286;49.858;8.768;2023-04-04T12:27:49;100064.50;;;11.37;26.42
6506;BME280;3286;49.858;8.768;2023-04-04T12:30:17;100063.16;;;10.60;27.68
6506;BME280;3286;49.858;8.768;2023-04-04T12:32:44;100056.78;;;11.14;25.60
6506;BME280;3286;49.858;8.768;2023-04-04T12:35:12;100062.81;;;11.97;28.26
6506;BME280;3286;49.858;8.768;2023-04-04T12:37:58;100068.97;;;10.21;26.94
6506;BME280;3286;49.858;8.768;2023-04-04T12:40:32;100068.47;;;9.05;29.00
6506;BME280;3286;49.858;8.768;2023-04-04T12:43:05;100061.59;;;10.03;28.06
6506;BME280;3286;49.858;8.768;2023-04-04T12:45:36;100060.31;;;10.72;25.86
6506;BME280;3286;49.858;8.768;2023-04-04T12:48:09;100052.94;;;11.28;26.43
6506;BME280;3286;49.858;8.768;2023-04-04T12:50:52;100049.63;;;12.16;25.80
6506;BME280;3286;49.858;8.768;2023-04-04T12:53:22;100050.97;;;11.91;25.21
6506;BME280;3286;49.858;8.768;2023-04-04T12:55:49;100053.19;;;11.76;25.77
6506;BME280;3286;49.858;8.768;2023-04-04T12:58:18;100040.25;;;10.91;25.88
6506;BME280;3286;49.858;8.768;2023-04-04T13:00:45;100035.88;;;11.52;26.06
6506;BME280;3286;49.858;8.768;2023-04-04T13:03:13;100033.31;;;11.00;24.48
6506;BME280;3286;49.858;8.768;2023-04-04T13:05:41;100032.56;;;11.19;24.68
6506;BME280;3286;49.858;8.768;2023-04-04T13:08:09;100036.19;;;9.91;26.53
6506;BME280;3286;49.858;8.768;2023-04-04T13:10:56;100030.22;;;10.21;28.67
6506;BME280;3286;49.858;8.768;2023-04-04T13:13:30;100029.78;;;11.21;29.04
6506;BME280;3286;49.858;8.768;2023-04-04T13:15:57;100028.63;;;9.53;27.70
6506;BME280;3286;49.858;8.768;2023-04-04T13:18:25;100021.56;;;11.14;27.67
6506;BME280;3286;49.858;8.768;2023-04-04T13:20:53;100024.53;;;10.26;26.08
6506;BME280;3286;49.858;8.768;2023-04-04T13:23:20;100023.41;;;11.33;26.92
6506;BME280;3286;49.858;8.768;2023-04-04T13:25:47;100019.91;;;11.93;25.13